Gooch Mill, Missouri
Current Conditions -  °F | °C
As of 4:15 AM on Saturday 20 Dec 2014 (Local Time) from KVER Reporting Station
Haze Haze  
Wind Chill:   Ceiling: 200
Heat Index:   Visibility: 1.2mi
Dew Point:   Wind: 3mph
Humidity: 100%   Direction: 140°SE
Pressure: 30.21"   Gusts: NA
Location:  38.8814°N, 92.7602°W
Report Text: KVER 201015Z AUTO 14003KT 1 1/4SM BR OVC002 02/02 A3021 RMK AO2 T00220023
Loading
Personal Weather Stations






























Interactive Weather Map New forecast layout! Learn more

10-Day Weather Forecast

Advertisements
Track Severe Weather on mobile